WEB kamera na Vojskem več informacij WEB-CAM on Vojsko


Kamera v Zali več informacij Kamera v Zali



Prišlo je do težav v komunikacij. Obišči direktno Meteoalarm web-stran: www.meteoalarm.eu and check the Weather-warnings there .

Nearby METAR Reports

   
LJLJ - Idrija
Updated: 17.12.2017 01:00
Nearby Fog, Delno oblačno  
Nearby Fog, Delno oblačno  
   Veter: varies 1.9 km/h
Veter: varies 1.9 km/h
Temperatura: -4°C
Rosišče: -4°C
Vlaga: 100%
Zračni tlak: 1013 hPa
Oblaki: Delno oblačno
Visibility: 8 km
Cloud details: Nekaj oblakov 100 ft,
Delno oblačno 8000 ft
LJLJ 170000Z VRB01KT 8000 VCFG FEW001 SCT080 M04/M04 Q1013 NOSIG
LJPZ - Koper
Updated: 17.12.2017 01:00
Jasno  
Jasno  
   Veter: varies 3.7 km/h
Veter: varies 3.7 km/h
Temperatura: 1°C
Rosišče: -1°C
Vlaga: 87%
Zračni tlak: 1013 hPa
Oblaki: Jasno
Visibility: More than 10 km
Cloud details: Jasno
LJPZ 170000Z AUTO VRB02KT 9999 NCD 01/M01 Q1013
LJLJ - Kranj
Updated: 17.12.2017 01:00
Nearby Fog, Delno oblačno  
Nearby Fog, Delno oblačno  
   Veter: varies 1.9 km/h
Veter: varies 1.9 km/h
Temperatura: -4°C
Rosišče: -4°C
Vlaga: 100%
Zračni tlak: 1013 hPa
Oblaki: Delno oblačno
Visibility: 8 km
Cloud details: Nekaj oblakov 100 ft,
Delno oblačno 8000 ft
LJLJ 170000Z VRB01KT 8000 VCFG FEW001 SCT080 M04/M04 Q1013 NOSIG

Script developed by  Saratoga-weather.org Adapted for the template by  Weerstation Leuven